createdAt,value
2018-05-26T00:00:19.676Z,2.20
2018-05-26T00:02:46.659Z,2.23
2018-05-26T00:05:13.691Z,2.03
2018-05-26T00:07:40.691Z,2.43
2018-05-26T00:10:07.762Z,2.60
2018-05-26T00:12:34.798Z,2.43
2018-05-26T00:15:01.776Z,1.97
2018-05-26T00:17:28.761Z,2.17
2018-05-26T00:19:55.781Z,2.50
2018-05-26T00:22:22.768Z,2.40
2018-05-26T00:24:49.744Z,2.53
2018-05-26T00:27:17.590Z,2.57
2018-05-26T00:29:47.429Z,2.50
2018-05-26T00:32:11.556Z,2.13
2018-05-26T00:34:38.659Z,2.90
2018-05-26T00:39:47.167Z,2.78
2018-05-26T00:42:14.165Z,2.90
2018-05-26T00:44:41.135Z,2.70
2018-05-26T00:47:08.147Z,2.37
2018-05-26T00:49:35.128Z,2.30
2018-05-26T00:52:02.107Z,2.20
2018-05-26T00:54:29.142Z,2.37
2018-05-26T00:56:56.125Z,2.63
2018-05-26T00:59:23.109Z,2.40
2018-05-26T01:01:50.200Z,2.17
2018-05-26T01:04:17.965Z,2.37
2018-05-26T01:06:45.891Z,2.60
2018-05-26T01:09:12.915Z,2.37
2018-05-26T01:11:40.841Z,2.33
2018-05-26T01:14:07.830Z,2.30
2018-05-26T01:16:37.613Z,2.00
2018-05-26T01:19:02.733Z,2.17
2018-05-26T01:21:29.720Z,2.33
2018-05-26T01:23:56.749Z,2.53
2018-05-26T01:26:23.727Z,2.27
2018-05-26T01:28:50.716Z,2.27
2018-05-26T01:31:17.754Z,2.47
2018-05-26T01:33:45.557Z,2.20
2018-05-26T01:36:12.543Z,2.50
2018-05-26T01:38:40.335Z,2.03
2018-05-26T01:41:08.173Z,2.30
2018-05-26T01:43:35.971Z,2.63
2018-05-26T01:46:02.987Z,2.90
2018-05-26T01:48:29.982Z,2.73
2018-05-26T01:50:57.025Z,2.90
2018-05-26T01:53:23.999Z,2.60
2018-05-26T01:55:50.988Z,3.00
2018-05-26T02:00:58.486Z,3.10
2018-05-26T02:03:25.472Z,3.17
2018-05-26T02:05:52.451Z,3.10
2018-05-26T02:08:19.485Z,2.83
2018-05-26T02:10:46.468Z,2.40
2018-05-26T02:13:13.452Z,2.10
2018-05-26T02:15:40.480Z,2.27
2018-05-26T02:18:07.471Z,2.60
2018-05-26T02:20:34.462Z,2.47
2018-05-26T02:23:01.469Z,2.57
2018-05-26T02:25:28.454Z,2.80
2018-05-26T02:27:55.440Z,2.57
2018-05-26T02:30:22.474Z,2.23
2018-05-26T02:32:49.460Z,2.50
2018-05-26T02:35:16.444Z,2.77
2018-05-26T02:37:43.467Z,2.70
2018-05-26T02:40:10.560Z,2.80
2018-05-26T02:42:38.396Z,3.07
2018-05-26T02:45:05.421Z,2.70
2018-05-26T02:47:32.403Z,2.57
2018-05-26T02:49:59.396Z,2.47
2018-05-26T02:52:26.432Z,2.67
2018-05-26T02:54:53.417Z,2.50
2018-05-26T02:57:20.443Z,3.00
2018-05-26T02:59:48.259Z,2.47
2018-05-26T03:02:15.249Z,3.17
2018-05-26T03:04:42.239Z,2.57
2018-05-26T03:07:09.269Z,2.67
2018-05-26T03:09:36.246Z,2.80
2018-05-26T03:12:03.234Z,2.60
2018-05-26T03:14:30.248Z,3.20
2018-05-26T03:16:57.228Z,3.13
2018-05-26T03:22:02.725Z,3.22
2018-05-26T03:24:29.723Z,3.00
2018-05-26T03:26:56.733Z,2.90
2018-05-26T03:29:23.762Z,2.60
2018-05-26T03:31:50.741Z,2.87
2018-05-26T03:34:17.744Z,2.77
2018-05-26T03:36:44.755Z,2.97
2018-05-26T03:39:11.733Z,2.53
2018-05-26T03:41:38.772Z,2.53
2018-05-26T03:44:05.790Z,3.07
2018-05-26T03:46:32.767Z,2.47
2018-05-26T03:48:59.760Z,2.87
2018-05-26T03:51:26.783Z,2.70
2018-05-26T03:56:43.804Z,3.35
2018-05-26T03:59:16.722Z,2.93
2018-05-26T04:01:43.751Z,2.60
2018-05-26T04:04:10.742Z,2.70
2018-05-26T04:06:37.744Z,3.20
2018-05-26T04:09:04.764Z,3.10
2018-05-26T04:11:31.758Z,3.30
2018-05-26T04:13:58.746Z,3.90
2018-05-26T04:16:25.768Z,3.00
2018-05-26T04:18:52.758Z,4.00
2018-05-26T04:21:19.744Z,3.43
2018-05-26T04:23:46.764Z,3.17
2018-05-26T04:26:13.761Z,3.13
2018-05-26T04:28:44.225Z,3.60
2018-05-26T04:31:11.280Z,2.90
2018-05-26T04:33:38.267Z,2.70
2018-05-26T04:36:05.259Z,3.13
2018-05-26T04:38:32.349Z,3.43
2018-05-26T04:40:59.327Z,3.87
2018-05-26T04:43:26.307Z,4.27
2018-05-26T04:45:53.319Z,3.83
2018-05-26T04:48:21.128Z,4.07
2018-05-26T04:50:48.199Z,3.67
2018-05-26T04:53:15.343Z,4.03
2018-05-26T04:58:23.962Z,3.58
2018-05-26T05:00:50.944Z,3.40
2018-05-26T05:03:17.925Z,3.67
2018-05-26T05:05:45.029Z,3.00
2018-05-26T05:08:11.948Z,3.57
2018-05-26T05:10:38.943Z,3.83
2018-05-26T05:13:05.970Z,3.77
2018-05-26T05:15:32.940Z,3.50
2018-05-26T05:17:59.922Z,3.23
2018-05-26T05:20:26.963Z,3.13
2018-05-26T05:22:53.942Z,3.37
2018-05-26T05:25:20.932Z,3.53
2018-05-26T05:27:47.960Z,3.33
2018-05-26T05:30:14.936Z,4.27
2018-05-26T05:32:41.994Z,4.23
2018-05-26T05:35:08.951Z,4.23
2018-05-26T05:37:36.707Z,4.73
2018-05-26T05:40:03.660Z,4.17
2018-05-26T05:42:30.719Z,3.87
2018-05-26T05:44:57.705Z,3.83
2018-05-26T05:47:24.689Z,3.77
2018-05-26T05:49:51.699Z,3.93
2018-05-26T05:52:18.684Z,4.03
2018-05-26T05:54:45.667Z,3.87
2018-05-26T05:57:12.717Z,3.33
2018-05-26T05:59:39.697Z,4.20
2018-05-26T06:02:06.680Z,3.43
2018-05-26T06:04:33.715Z,3.77
2018-05-26T06:07:00.788Z,4.23
2018-05-26T06:09:27.790Z,3.93
2018-05-26T06:11:55.747Z,4.00
2018-05-26T06:14:25.942Z,3.47
2018-05-26T06:19:33.352Z,3.22
2018-05-26T06:22:00.392Z,3.00
2018-05-26T06:24:27.371Z,3.47
2018-05-26T06:26:55.345Z,3.83
2018-05-26T06:29:22.322Z,3.43
2018-05-26T06:31:49.373Z,3.10
2018-05-26T06:34:16.330Z,3.00
2018-05-26T06:36:43.323Z,2.33
2018-05-26T06:39:10.303Z,3.13
2018-05-26T06:41:37.321Z,2.90
2018-05-26T06:44:04.306Z,3.27
2018-05-26T06:46:32.291Z,3.00
2018-05-26T06:48:59.380Z,2.77
2018-05-26T06:51:26.385Z,3.63
2018-05-26T06:53:53.380Z,3.13
2018-05-26T06:56:20.448Z,3.53
2018-05-26T06:58:47.572Z,2.93
2018-05-26T07:01:14.568Z,2.77
2018-05-26T07:03:41.585Z,3.20
2018-05-26T07:06:08.837Z,2.70
2018-05-26T07:08:35.818Z,2.60
2018-05-26T07:11:02.848Z,3.43
2018-05-26T07:13:30.670Z,2.97
2018-05-26T07:15:57.657Z,2.93
2018-05-26T07:18:25.567Z,2.80
2018-05-26T07:20:52.593Z,2.90
2018-05-26T07:23:19.592Z,2.90
2018-05-26T07:25:46.605Z,3.23
2018-05-26T07:28:13.586Z,3.07
2018-05-26T07:30:40.572Z,3.00
2018-05-26T07:33:07.597Z,3.20
2018-05-26T07:38:17.173Z,3.40
2018-05-26T07:40:45.116Z,2.97
2018-05-26T07:43:12.099Z,3.07
2018-05-26T07:45:39.114Z,2.67
2018-05-26T07:48:06.102Z,2.60
2018-05-26T07:50:34.445Z,3.00
2018-05-26T07:53:01.466Z,2.67
2018-05-26T07:55:29.278Z,2.77
2018-05-26T07:57:56.318Z,2.73
2018-05-26T08:00:26.185Z,2.90
2018-05-26T08:02:53.170Z,2.93
2018-05-26T08:05:20.183Z,2.63
2018-05-26T08:07:47.230Z,2.37
2018-05-26T08:10:14.231Z,2.30
2018-05-26T08:12:41.304Z,2.43
2018-05-26T08:15:08.323Z,2.80
2018-05-26T08:17:35.319Z,2.40
2018-05-26T08:20:02.304Z,2.83
2018-05-26T08:22:30.286Z,2.87
2018-05-26T08:24:57.269Z,3.10
2018-05-26T08:27:26.852Z,2.63
2018-05-26T08:29:53.889Z,2.50
2018-05-26T08:32:21.729Z,2.70
2018-05-26T08:34:49.560Z,2.40
2018-05-26T08:37:16.596Z,2.33
2018-05-26T08:39:43.608Z,2.70
2018-05-26T08:42:15.055Z,2.50
2018-05-26T08:44:42.084Z,2.20
2018-05-26T08:47:09.068Z,2.53
2018-05-26T08:49:36.070Z,2.20
2018-05-26T08:52:03.111Z,2.17
2018-05-26T08:54:31.002Z,2.33
2018-05-26T08:56:58.792Z,2.30
2018-05-26T08:59:25.818Z,1.90
2018-05-26T09:01:52.893Z,1.77
2018-05-26T09:07:01.236Z,2.40
2018-05-26T09:09:28.220Z,2.13
2018-05-26T09:11:55.217Z,2.00
2018-05-26T09:14:22.246Z,2.03
2018-05-26T09:16:49.261Z,2.07
2018-05-26T09:19:17.087Z,1.90
2018-05-26T09:21:44.114Z,2.20
2018-05-26T09:24:11.107Z,1.70
2018-05-26T09:26:38.184Z,2.13
2018-05-26T09:29:05.220Z,1.90
2018-05-26T09:31:32.230Z,1.83
2018-05-26T09:33:59.975Z,2.00
2018-05-26T09:36:27.000Z,2.47
2018-05-26T09:38:53.988Z,2.30
2018-05-26T09:41:21.073Z,2.30
2018-05-26T09:43:48.125Z,2.30
2018-05-26T09:46:15.078Z,2.17
2018-05-26T09:48:42.064Z,2.23
2018-05-26T09:51:09.930Z,2.30
2018-05-26T09:53:36.922Z,2.43
2018-05-26T09:56:03.949Z,2.17
2018-05-26T09:58:30.921Z,2.00
2018-05-26T10:00:57.909Z,2.30
2018-05-26T10:03:26.039Z,2.60
2018-05-26T10:05:53.064Z,2.43
2018-05-26T10:08:20.044Z,2.00
2018-05-26T10:10:47.030Z,2.47
2018-05-26T10:13:14.058Z,2.50
2018-05-26T10:15:41.043Z,2.30
2018-05-26T10:18:09.704Z,2.30
2018-05-26T10:20:37.561Z,2.40
2018-05-26T10:23:04.549Z,2.17
2018-05-26T10:28:12.031Z,2.10
2018-05-26T10:30:39.045Z,2.13
2018-05-26T10:33:06.030Z,2.57
2018-05-26T10:35:34.040Z,2.10
2018-05-26T10:38:01.037Z,2.27
2018-05-26T10:40:28.027Z,2.27
2018-05-26T10:42:55.041Z,2.33
2018-05-26T10:48:07.892Z,1.77
2018-05-26T10:50:35.826Z,2.20
2018-05-26T10:53:03.876Z,1.80
2018-05-26T10:55:30.888Z,2.03
2018-05-26T10:57:57.890Z,1.90
2018-05-26T11:00:24.869Z,1.80
2018-05-26T11:02:52.966Z,2.40
2018-05-26T11:05:19.964Z,2.17
2018-05-26T11:07:46.954Z,2.30
2018-05-26T11:10:14.002Z,2.10
2018-05-26T11:12:40.989Z,1.47
2018-05-26T11:15:07.983Z,1.60
2018-05-26T11:17:35.004Z,2.07
2018-05-26T11:20:01.990Z,2.30
2018-05-26T11:22:28.985Z,2.07
2018-05-26T11:24:56.048Z,1.83
2018-05-26T11:27:23.025Z,4.70
2018-05-26T11:29:50.012Z,2.30
2018-05-26T11:32:17.805Z,1.60
2018-05-26T11:34:44.791Z,1.87
2018-05-26T11:37:12.736Z,1.70
2018-05-26T11:39:39.655Z,1.87
2018-05-26T11:42:06.643Z,1.63
2018-05-26T11:44:33.626Z,1.97
2018-05-26T11:47:00.653Z,1.83
2018-05-26T11:49:27.646Z,1.53
2018-05-26T11:51:54.631Z,1.35
2018-05-26T11:54:21.659Z,1.30
2018-05-26T11:56:49.610Z,1.43
2018-05-26T11:59:16.604Z,1.60
2018-05-26T12:01:43.647Z,1.70
2018-05-26T12:04:10.697Z,1.15
2018-05-26T12:09:17.144Z,2.00
2018-05-26T12:11:44.145Z,1.40
2018-05-26T12:14:12.119Z,1.10
2018-05-26T12:16:40.116Z,1.20
2018-05-26T12:19:07.089Z,1.47
2018-05-26T12:21:34.093Z,1.17
2018-05-26T12:24:01.127Z,1.20
2018-05-26T12:26:28.108Z,0.97
2018-05-26T12:28:55.093Z,1.13
2018-05-26T12:31:22.127Z,1.10
2018-05-26T12:33:49.122Z,1.10
2018-05-26T12:36:16.102Z,1.10
2018-05-26T12:38:43.848Z,1.10
2018-05-26T12:41:10.861Z,1.50
2018-05-26T12:43:38.701Z,1.10
2018-05-26T12:46:05.727Z,1.20
2018-05-26T12:48:33.670Z,1.40
2018-05-26T12:51:00.663Z,1.65
2018-05-26T12:53:28.459Z,1.50
2018-05-26T12:55:55.454Z,1.10
2018-05-26T12:58:23.407Z,1.15
2018-05-26T13:00:51.404Z,1.33
2018-05-26T13:03:19.473Z,1.62
2018-05-26T13:05:47.203Z,1.33
2018-05-26T13:08:14.235Z,1.30
2018-05-26T13:10:41.224Z,1.35
2018-05-26T13:13:08.347Z,1.40
2018-05-26T13:15:35.385Z,1.25
2018-05-26T13:18:02.399Z,1.55
2018-05-26T13:20:29.411Z,1.50
2018-05-26T13:22:57.458Z,1.30
2018-05-26T13:25:24.546Z,1.50
2018-05-26T13:30:30.033Z,1.23
2018-05-26T13:32:57.014Z,1.40
2018-05-26T13:35:24.009Z,1.27
2018-05-26T13:37:52.905Z,1.08
2018-05-26T13:40:18.045Z,1.50
2018-05-26T13:42:45.055Z,1.10
2018-05-26T13:45:12.082Z,1.20
2018-05-26T13:47:39.045Z,1.20
2018-05-26T13:50:06.028Z,1.50
2018-05-26T13:52:36.610Z,1.05
2018-05-26T13:55:03.585Z,1.10
2018-05-26T13:57:30.533Z,1.20
2018-05-26T13:59:57.552Z,1.23
2018-05-26T14:02:24.577Z,1.30
2018-05-26T14:04:51.530Z,1.33
2018-05-26T14:07:18.547Z,1.20
2018-05-26T14:09:45.537Z,1.20
2018-05-26T14:12:13.534Z,1.40
2018-05-26T14:14:40.561Z,0.90
2018-05-26T14:17:07.551Z,1.20
2018-05-26T14:19:34.546Z,1.30
2018-05-26T14:22:01.584Z,1.20
2018-05-26T14:24:31.326Z,1.20
2018-05-26T14:26:58.319Z,1.00
2018-05-26T14:29:26.190Z,1.12
2018-05-26T14:34:31.679Z,1.20
2018-05-26T14:36:58.749Z,1.23
2018-05-26T14:39:25.736Z,1.25
2018-05-26T14:41:52.763Z,1.02
2018-05-26T14:44:19.752Z,1.25
2018-05-26T14:46:47.571Z,1.02
2018-05-26T14:49:15.346Z,1.50
2018-05-26T14:51:42.337Z,1.40
2018-05-26T14:54:09.332Z,1.20
2018-05-26T14:56:36.360Z,1.17
2018-05-26T14:59:03.343Z,1.30
2018-05-26T15:01:30.320Z,1.60
2018-05-26T15:03:57.337Z,1.30
2018-05-26T15:06:24.325Z,1.10
2018-05-26T15:08:52.331Z,1.50
2018-05-26T15:11:19.340Z,1.40
2018-05-26T15:13:46.327Z,1.43
2018-05-26T15:16:13.312Z,1.40
2018-05-26T15:18:40.335Z,1.42
2018-05-26T15:21:07.331Z,1.37
2018-05-26T15:23:34.310Z,1.53
2018-05-26T15:26:01.324Z,1.73
2018-05-26T15:28:28.309Z,1.43
2018-05-26T15:30:56.149Z,1.80
2018-05-26T15:33:23.161Z,1.70
2018-05-26T15:35:50.145Z,1.83
2018-05-26T15:40:57.625Z,2.10
2018-05-26T15:43:25.758Z,1.80
2018-05-26T15:45:52.737Z,1.80
2018-05-26T15:48:19.767Z,2.00
2018-05-26T15:50:47.545Z,2.17
2018-05-26T15:53:15.466Z,1.90
2018-05-26T15:55:42.472Z,1.83
2018-05-26T15:58:09.457Z,1.90
2018-05-26T16:00:36.531Z,1.97
2018-05-26T16:03:03.561Z,2.17
2018-05-26T16:05:30.540Z,2.13
2018-05-26T16:07:57.538Z,2.03
2018-05-26T16:10:24.621Z,2.40
2018-05-26T16:12:51.610Z,1.93
2018-05-26T16:15:19.533Z,1.60
2018-05-26T16:17:46.638Z,2.07
2018-05-26T16:20:13.554Z,2.13
2018-05-26T16:22:40.552Z,1.70
2018-05-26T16:25:07.625Z,2.53
2018-05-26T16:27:35.459Z,1.80
2018-05-26T16:30:02.435Z,2.17
2018-05-26T16:32:29.490Z,2.00
2018-05-26T16:34:56.468Z,2.00
2018-05-26T16:37:23.464Z,2.27
2018-05-26T16:39:50.480Z,2.27
2018-05-26T16:42:17.470Z,2.23
2018-05-26T16:44:44.454Z,2.30
2018-05-26T16:47:11.502Z,1.80
2018-05-26T16:49:38.646Z,2.20
2018-05-26T16:52:05.482Z,1.83
2018-05-26T16:54:32.503Z,2.40
2018-05-26T16:56:59.491Z,1.87
2018-05-26T16:59:26.583Z,2.10
2018-05-26T17:04:32.064Z,2.40
2018-05-26T17:06:59.083Z,2.37
2018-05-26T17:09:26.124Z,2.00
2018-05-26T17:11:53.893Z,1.90
2018-05-26T17:14:20.906Z,2.57
2018-05-26T17:16:47.908Z,2.53
2018-05-26T17:19:14.894Z,2.10
2018-05-26T17:21:42.021Z,2.30
2018-05-26T17:24:09.014Z,2.17
2018-05-26T17:26:36.007Z,2.30
2018-05-26T17:29:03.032Z,2.37
2018-05-26T17:31:30.883Z,2.03
2018-05-26T17:33:57.873Z,2.20
2018-05-26T17:36:25.768Z,2.10
2018-05-26T17:38:52.945Z,2.40
2018-05-26T17:41:20.765Z,2.20
2018-05-26T17:43:47.776Z,2.47
2018-05-26T17:46:14.776Z,2.30
2018-05-26T17:48:42.576Z,2.50
2018-05-26T17:51:09.657Z,2.00
2018-05-26T17:53:36.723Z,2.10
2018-05-26T17:56:04.460Z,2.27
2018-05-26T17:58:31.479Z,2.60
2018-05-26T18:00:58.460Z,2.57
2018-05-26T18:03:25.462Z,2.83
2018-05-26T18:05:53.516Z,2.27
2018-05-26T18:08:20.512Z,2.30
2018-05-26T18:10:47.504Z,2.30
2018-05-26T18:13:15.391Z,2.00
2018-05-26T18:15:43.207Z,2.20
2018-05-26T18:20:48.737Z,2.77
2018-05-26T18:23:15.723Z,3.00
2018-05-26T18:25:42.716Z,2.30
2018-05-26T18:28:09.741Z,2.43
2018-05-26T18:30:37.454Z,2.10
2018-05-26T18:33:04.436Z,2.03
2018-05-26T18:35:31.452Z,2.27
2018-05-26T18:37:58.443Z,2.77
2018-05-26T18:40:26.389Z,2.03
2018-05-26T18:45:36.355Z,2.27
2018-05-26T18:48:03.396Z,1.70
2018-05-26T18:50:30.386Z,1.90
2018-05-26T18:52:57.377Z,1.60
2018-05-26T18:55:24.400Z,1.70
2018-05-26T18:57:51.474Z,1.90
2018-05-26T19:00:18.467Z,1.67
2018-05-26T19:02:45.488Z,1.90
2018-05-26T19:05:12.474Z,2.17
2018-05-26T19:07:40.416Z,2.30
2018-05-26T19:10:07.455Z,2.30
2018-05-26T19:12:34.442Z,2.27
2018-05-26T19:15:01.436Z,2.50
2018-05-26T19:17:28.470Z,2.40
2018-05-26T19:19:55.464Z,2.53
2018-05-26T19:22:23.277Z,2.10
2018-05-26T19:24:50.301Z,2.60
2018-05-26T19:27:17.292Z,2.07
2018-05-26T19:29:44.272Z,2.30
2018-05-26T19:32:11.307Z,2.50
2018-05-26T19:34:38.380Z,1.97
2018-05-26T19:37:06.213Z,2.33
2018-05-26T19:39:33.241Z,2.63
2018-05-26T19:42:00.227Z,2.50
2018-05-26T19:44:27.220Z,2.23
2018-05-26T19:46:54.265Z,2.30
2018-05-26T19:49:21.262Z,2.33
2018-05-26T19:51:48.248Z,3.17
2018-05-26T19:54:15.269Z,2.30
2018-05-26T19:56:43.117Z,2.73
2018-05-26T19:59:10.129Z,3.00
2018-05-26T20:01:37.973Z,2.43
2018-05-26T20:06:45.483Z,3.40
2018-05-26T20:09:12.475Z,2.80
2018-05-26T20:11:39.478Z,2.70
2018-05-26T20:14:06.520Z,2.43
2018-05-26T20:16:33.511Z,2.60
2018-05-26T20:19:00.509Z,2.50
2018-05-26T20:21:28.371Z,3.20
2018-05-26T20:23:55.363Z,2.90
2018-05-26T20:26:22.350Z,2.60
2018-05-26T20:28:50.230Z,2.50
2018-05-26T20:31:17.258Z,2.60
2018-05-26T20:33:45.143Z,2.80
2018-05-26T20:36:14.172Z,2.60
2018-05-26T20:38:41.167Z,2.83
2018-05-26T20:41:08.162Z,3.03
2018-05-26T20:43:35.230Z,2.50
2018-05-26T20:46:02.164Z,2.83
2018-05-26T20:48:29.968Z,2.33
2018-05-26T20:50:57.016Z,2.97
2018-05-26T20:53:23.993Z,2.83
2018-05-26T20:55:50.989Z,2.70
2018-05-26T20:58:18.008Z,2.97
2018-05-26T21:00:45.000Z,2.70
2018-05-26T21:03:12.012Z,3.23
2018-05-26T21:05:39.052Z,3.10
2018-05-26T21:08:06.996Z,2.90
2018-05-26T21:10:34.063Z,2.67
2018-05-26T21:13:01.103Z,3.37
2018-05-26T21:15:28.102Z,2.70
2018-05-26T21:17:55.089Z,2.83
2018-05-26T21:20:22.129Z,3.23
2018-05-26T21:22:49.207Z,2.60
2018-05-26T21:25:16.198Z,2.93
2018-05-26T21:27:44.162Z,3.10
2018-05-26T21:32:49.611Z,3.12
2018-05-26T21:35:16.582Z,2.83
2018-05-26T21:37:43.578Z,2.97
2018-05-26T21:40:12.658Z,2.83
2018-05-26T21:42:37.640Z,2.93
2018-05-26T21:45:04.621Z,2.80
2018-05-26T21:47:32.470Z,3.43
2018-05-26T21:49:59.462Z,3.13
2018-05-26T21:52:28.138Z,3.10
2018-05-26T21:54:55.123Z,3.67
2018-05-26T21:57:22.120Z,3.53
2018-05-26T21:59:49.115Z,3.30
2018-05-26T22:02:16.133Z,3.33
2018-05-26T22:04:43.117Z,3.70
2018-05-26T22:07:10.105Z,3.50
2018-05-26T22:09:37.118Z,3.50
2018-05-26T22:12:04.109Z,3.10
2018-05-26T22:14:31.095Z,3.60
2018-05-26T22:16:58.987Z,3.53
2018-05-26T22:19:25.976Z,3.10
2018-05-26T22:21:53.055Z,3.20
2018-05-26T22:24:20.093Z,3.47
2018-05-26T22:26:48.022Z,3.47
2018-05-26T22:29:15.011Z,3.40
2018-05-26T22:31:42.961Z,2.73
2018-05-26T22:34:09.951Z,3.37
2018-05-26T22:36:36.934Z,2.97
2018-05-26T22:41:42.277Z,3.37
2018-05-26T22:44:09.382Z,3.13
2018-05-26T22:46:36.366Z,2.93
2018-05-26T22:49:03.711Z,2.90
2018-05-26T22:51:30.737Z,3.10
2018-05-26T22:53:59.746Z,2.80
2018-05-26T22:56:24.795Z,3.00
2018-05-26T22:58:51.815Z,2.73
2018-05-26T23:01:18.796Z,3.17
2018-05-26T23:03:45.780Z,2.60
2018-05-26T23:06:12.839Z,3.10
2018-05-26T23:08:39.835Z,2.83
2018-05-26T23:11:06.819Z,2.67
2018-05-26T23:13:33.834Z,2.97
2018-05-26T23:16:00.818Z,2.87
2018-05-26T23:18:27.793Z,2.83
2018-05-26T23:20:54.820Z,3.30
2018-05-26T23:23:21.890Z,3.13
2018-05-26T23:25:48.888Z,2.70
2018-05-26T23:28:16.202Z,3.00
2018-05-26T23:30:43.184Z,2.70
2018-05-26T23:33:10.168Z,3.10
2018-05-26T23:35:38.032Z,3.23
2018-05-26T23:38:05.036Z,3.43
2018-05-26T23:40:32.017Z,3.00
2018-05-26T23:42:59.039Z,3.13
2018-05-26T23:48:04.532Z,3.25
2018-05-26T23:50:31.529Z,2.50
2018-05-26T23:52:58.896Z,3.40
2018-05-26T23:55:25.912Z,3.10
2018-05-26T23:57:52.895Z,3.30
